Mahopac, NY (10541)

1:57 AM EDT on September 01, 2016 (GMT -0400)
Mahopac | | Change Station

Elev 823 ft 41.37 °N, 73.74 °W | Updated 26 minutes ago

Partly Cloudy
Partly Cloudy
71.1 °F
Feels Like 71.1 °F
N
0.0
Wind Variable Wind from ESE
Gusts 0.0 mph

Today
High -- | Low -- °F
--% Chance of Precip.
Yesterday
High -- | Low -- °F
Precip. -- in
Pressure 29.86 in
Visibility 10.0 miles
Clouds Few 5500 ft
Dew Point 68 °F
Humidity 90%
Rainfall 0.00 in
Snow Depth Not available.
6:21 AM 7:27 PM
Waning Crescent, 0% visible
METAR KDXR 010553Z AUTO 00000KT 10SM FEW055 21/19 A2987 RMK AO2 SLP112 T02110194 10233 20211 58011
Pressure 29.86 in
Visibility 10.0 miles
Clouds Few 5500 ft
Dew Point 68 °F
Humidity 90%
Rainfall 0.00 in
Snow Depth Not available.
6:21 AM 7:27 PM
Waning Crescent, 0% visible
METAR KDXR 010553Z AUTO 00000KT 10SM FEW055 21/19 A2987 RMK AO2 SLP112 T02110194 10233 20211 58011

10-Day Weather Forecast

Almanac

Astronomy

Sep. 01, 2016 Rise Set
Actual Time
Civil Twilight
Nautical Twilight
Astronomical Twilight
Moon
Length of Visible Light
Length of Day
Tomorrow will be .
, % of the Moon is Illuminated

Today's Extremes

State Highs State Lows

Community

WunderPhotos

Upload Photos

1,936,313 photos uploaded!

WunderBlog® & News

Nearby

Air Quality

  Air Quality AQ Index Pollutant
Not available.

Snow Depth

Station Depth Elevation

Earthquake Activity

City Distance Mag. Time & Date
Minimum magnitude displayed is 2.5.

Coastal Water Temperatures

Place Temperature

Stations

Nearby Weather Stations

Station Location Temp. Windchill Dew Point Humidity Wind Precip. Elev Updated Type
                   

Watches & Warnings

There are currently no watches in effect.